Time;durP1;ratioP1;P1;durP2;ratioP2;P2;SDS_P1;SDS_P2;PMS_P1;PMS_P2;Temp;Humidity;BMP_temperature;BMP_pressure;BME280_temperature;BME280_humidity;BME280_pressure;Samples;Min_cycle;Max_cycle;Signal;HPM_P1;HPM_P2
2021/03/30 00:01:39;;;;;;;4.53;2.60;;;12.30;88.20;;;;;;4986043;28;20039;-74
2021/03/30 00:04:04;;;;;;;7.45;2.78;;;12.30;89.40;;;;;;4980144;28;20132;-74
2021/03/30 00:06:30;;;;;;;8.55;2.88;;;12.20;90.00;;;;;;4984454;28;20527;-74
2021/03/30 00:08:55;;;;;;;8.80;2.95;;;12.20;89.60;;;;;;4989588;28;20030;-74
2021/03/30 00:11:21;;;;;;;5.90;3.13;;;12.10;89.90;;;;;;4988273;28;20037;-74
2021/03/30 00:13:47;;;;;;;6.13;2.65;;;12.10;90.40;;;;;;4989528;28;20426;-73
2021/03/30 00:16:12;;;;;;;6.15;2.53;;;12.00;90.70;;;;;;4981079;28;20059;-74
2021/03/30 00:18:38;;;;;;;5.30;2.90;;;12.00;91.20;;;;;;4989189;28;20084;-74
2021/03/30 00:21:03;;;;;;;8.90;2.83;;;11.90;91.10;;;;;;4986463;28;20508;-74
2021/03/30 00:23:29;;;;;;;7.90;2.60;;;11.90;91.40;;;;;;4985816;28;20038;-74
2021/03/30 00:25:54;;;;;;;4.35;2.88;;;11.80;91.60;;;;;;4989306;28;20030;-74
2021/03/30 00:28:20;;;;;;;4.20;2.40;;;11.80;91.30;;;;;;4989409;28;20691;-74
2021/03/30 00:30:46;;;;;;;5.63;2.50;;;11.70;91.50;;;;;;4986612;28;20053;-74
2021/03/30 00:33:11;;;;;;;10.20;2.58;;;11.70;92.00;;;;;;4986234;28;20050;-74
2021/03/30 00:35:39;;;;;;;3.90;2.20;;;11.70;92.20;;;;;;4988713;28;20093;-74
2021/03/30 00:38:09;;;;;;;4.93;2.70;;;11.60;92.10;;;;;;4984611;28;20030;-74
2021/03/30 00:40:34;;;;;;;6.82;3.08;;;11.60;92.20;;;;;;4990183;28;20038;-74
2021/03/30 00:43:00;;;;;;;4.03;2.40;;;11.60;92.50;;;;;;4987690;28;20087;-74
2021/03/30 00:45:28;;;;;;;5.20;3.00;;;11.50;92.80;;;;;;4989469;28;20022;-74
2021/03/30 00:47:54;;;;;;;5.85;3.15;;;11.50;92.50;;;;;;4989660;28;20034;-74
2021/03/30 00:50:21;;;;;;;5.70;2.67;;;11.40;92.60;;;;;;4987413;28;20117;-74
2021/03/30 00:52:48;;;;;;;4.35;2.50;;;11.40;92.90;;;;;;4989230;28;20034;-74
2021/03/30 00:55:14;;;;;;;6.95;2.60;;;11.40;92.80;;;;;;4982732;28;20038;-73
2021/03/30 00:57:40;;;;;;;5.45;2.80;;;11.30;92.90;;;;;;4979466;28;20170;-74
2021/03/30 01:00:11;;;;;;;9.50;3.08;;;11.30;93.10;;;;;;4987095;28;20697;-74
2021/03/30 01:02:38;;;;;;;6.43;2.80;;;11.30;93.50;;;;;;4988310;28;20030;-73
2021/03/30 01:05:05;;;;;;;5.80;2.75;;;11.20;93.60;;;;;;4988231;28;20766;-73
2021/03/30 01:07:32;;;;;;;6.32;2.90;;;11.20;94.30;;;;;;4987683;28;20182;-73
2021/03/30 01:10:25;;;;;;;6.53;2.63;;;11.20;94.00;;;;;;4986319;28;20532;-74
2021/03/30 01:13:16;;;;;;;10.35;3.03;;;11.20;93.90;;;;;;4990551;28;20033;-74
2021/03/30 01:15:54;;;;;;;7.35;3.58;;;11.20;94.70;;;;;;4976921;28;20058;-73
2021/03/30 01:18:32;;;;;;;8.52;2.55;;;11.10;94.80;;;;;;4979581;28;20576;-74
2021/03/30 01:21:22;;;;;;;7.53;3.47;;;11.10;94.90;;;;;;4985981;28;20081;-73
2021/03/30 01:24:13;;;;;;;6.85;2.85;;;11.00;95.30;;;;;;4979558;28;20634;-74
2021/03/30 01:26:44;;;;;;;7.57;3.08;;;11.00;95.20;;;;;;4983177;28;20477;-74
2021/03/30 01:29:17;;;;;;;8.38;3.30;;;10.90;95.40;;;;;;4989507;28;20041;-74
2021/03/30 01:31:45;;;;;;;7.13;2.75;;;10.90;95.70;;;;;;4990321;28;20033;-73
2021/03/30 01:34:13;;;;;;;8.40;2.70;;;10.80;95.80;;;;;;4987719;28;20050;-74
2021/03/30 01:36:42;;;;;;;3.53;2.63;;;10.80;95.60;;;;;;4978047;28;20054;-73
2021/03/30 01:39:10;;;;;;;7.72;2.90;;;10.80;95.80;;;;;;4978717;28;20039;-74
2021/03/30 01:41:37;;;;;;;4.90;2.80;;;10.80;96.10;;;;;;4990187;28;20108;-74
2021/03/30 01:44:04;;;;;;;4.63;2.58;;;10.80;96.40;;;;;;4982420;28;20022;-74
2021/03/30 01:46:31;;;;;;;8.00;3.08;;;10.70;96.40;;;;;;4989402;28;20037;-73
2021/03/30 01:48:57;;;;;;;6.80;3.53;;;10.70;96.80;;;;;;4989777;28;20018;-74
2021/03/30 01:51:23;;;;;;;3.58;2.47;;;10.60;96.50;;;;;;4989707;28;20054;-73
2021/03/30 01:53:50;;;;;;;10.75;3.05;;;10.60;97.40;;;;;;4982910;28;20050;-73
2021/03/30 01:56:17;;;;;;;5.07;2.60;;;10.50;98.10;;;;;;4984403;28;20025;-74
2021/03/30 01:58:44;;;;;;;4.55;2.88;;;10.50;97.90;;;;;;4981315;28;20047;-73
2021/03/30 02:01:15;;;;;;;5.75;3.20;;;10.50;97.80;;;;;;4989622;28;20034;-74
2021/03/30 02:03:42;;;;;;;8.25;3.47;;;10.40;97.80;;;;;;4990475;28;20038;-74
2021/03/30 02:06:09;;;;;;;7.43;3.00;;;10.40;98.30;;;;;;4987534;28;20052;-73
2021/03/30 02:08:35;;;;;;;6.43;2.90;;;10.40;97.70;;;;;;4987549;28;20117;-74
2021/03/30 02:11:02;;;;;;;4.78;2.65;;;10.40;98.10;;;;;;4984178;28;20490;-74
2021/03/30 02:14:01;;;;;;;5.63;3.22;;;10.40;98.60;;;;;;4989457;28;20101;-74
2021/03/30 02:16:22;;;;;;;5.78;3.15;;;10.30;98.50;;;;;;4986312;28;20813;-74
2021/03/30 02:18:58;;;;;;;5.30;3.00;;;10.30;98.50;;;;;;4980971;28;20022;-73
2021/03/30 02:21:33;;;;;;;6.40;3.20;;;10.30;99.00;;;;;;4985826;28;20027;-74
2021/03/30 02:24:09;;;;;;;5.20;3.22;;;10.30;99.00;;;;;;4973370;28;20035;-74
2021/03/30 02:26:37;;;;;;;9.05;3.00;;;10.20;99.20;;;;;;4987263;28;21720;-74
2021/03/30 02:29:06;;;;;;;7.70;3.08;;;10.20;99.40;;;;;;4974826;28;20123;-74
2021/03/30 02:31:33;;;;;;;6.10;3.08;;;10.10;99.30;;;;;;4984037;28;20041;-74
2021/03/30 02:34:03;;;;;;;8.90;3.55;;;10.10;99.60;;;;;;4988163;28;20046;-74
2021/03/30 02:36:29;;;;;;;14.10;3.13;;;10.10;99.50;;;;;;4987912;28;20050;-73
2021/03/30 02:39:09;;;;;;;6.20;3.25;;;10.00;99.60;;;;;;4989934;28;20034;-74
2021/03/30 02:41:36;;;;;;;5.20;2.95;;;10.00;99.90;;;;;;4985576;28;20030;-74
2021/03/30 02:44:04;;;;;;;6.60;2.83;;;10.00;99.90;;;;;;4988797;28;20026;-74
2021/03/30 02:46:32;;;;;;;9.18;3.25;;;9.90;99.90;;;;;;4987333;28;20037;-74
2021/03/30 02:48:59;;;;;;;7.72;3.35;;;9.90;99.90;;;;;;4979651;28;20432;-74
2021/03/30 02:51:26;;;;;;;6.82;3.33;;;9.80;99.90;;;;;;4983608;28;20034;-74
2021/03/30 02:53:53;;;;;;;6.50;3.30;;;9.90;99.90;;;;;;4982543;28;20038;-74
2021/03/30 02:56:20;;;;;;;11.25;3.28;;;9.80;99.90;;;;;;4976953;28;20054;-74
2021/03/30 02:58:45;;;;;;;7.93;3.30;;;9.80;99.90;;;;;;4987521;28;20421;-74
2021/03/30 03:01:12;;;;;;;8.70;3.38;;;9.70;99.90;;;;;;4977430;28;20061;-73
2021/03/30 03:03:40;;;;;;;7.07;3.50;;;9.70;99.90;;;;;;4987993;28;20050;-74
2021/03/30 03:06:05;;;;;;;5.38;3.13;;;9.70;99.90;;;;;;4988543;28;20068;-73
2021/03/30 03:08:31;;;;;;;10.48;4.00;;;9.70;99.90;;;;;;4982549;28;20034;-73
2021/03/30 03:10:58;;;;;;;6.18;3.42;;;9.70;99.90;;;;;;4985594;28;20034;-73
2021/03/30 03:13:25;;;;;;;5.47;3.13;;;9.70;99.90;;;;;;4984337;28;20026;-74
2021/03/30 03:15:51;;;;;;;4.88;3.05;;;9.70;99.90;;;;;;4991030;28;20045;-74
2021/03/30 03:18:18;;;;;;;6.10;3.13;;;9.60;99.90;;;;;;4992462;28;20034;-74
2021/03/30 03:20:49;;;;;;;7.32;3.30;;;9.60;99.90;;;;;;4991358;28;20128;-73
2021/03/30 03:23:15;;;;;;;7.57;3.22;;;9.60;99.90;;;;;;4990978;28;20034;-73
2021/03/30 03:25:43;;;;;;;8.93;3.40;;;9.50;99.90;;;;;;4989761;28;20034;-73
2021/03/30 03:28:11;;;;;;;7.30;3.72;;;9.50;99.90;;;;;;4991886;28;20078;-74
2021/03/30 03:30:39;;;;;;;6.25;3.35;;;9.50;99.90;;;;;;4991818;28;20168;-73
2021/03/30 03:33:13;;;;;;;6.55;3.45;;;9.40;99.90;;;;;;4984378;28;20061;-74
2021/03/30 03:35:42;;;;;;;7.43;2.95;;;9.40;99.90;;;;;;4992776;28;20034;-73
2021/03/30 03:38:09;;;;;;;7.00;3.03;;;9.40;99.90;;;;;;4990031;28;20033;-73
2021/03/30 03:40:34;;;;;;;8.65;3.20;;;9.30;99.90;;;;;;4989642;28;20056;-74
2021/03/30 03:43:01;;;;;;;7.03;3.63;;;9.30;99.90;;;;;;4984983;28;20109;-74
2021/03/30 03:45:27;;;;;;;9.65;3.20;;;9.20;99.90;;;;;;4992031;28;20065;-74
2021/03/30 03:47:52;;;;;;;4.95;2.88;;;9.20;99.90;;;;;;4987812;28;20504;-74
2021/03/30 03:50:19;;;;;;;9.32;3.80;;;9.20;99.90;;;;;;4980307;28;20022;-74
2021/03/30 03:52:50;;;;;;;9.85;3.22;;;9.20;99.90;;;;;;4990190;28;20034;-73
2021/03/30 03:55:16;;;;;;;4.40;2.80;;;9.20;99.90;;;;;;4985712;28;20031;-73
2021/03/30 03:57:52;;;;;;;5.65;3.10;;;9.20;99.90;;;;;;4987607;28;20920;-74
2021/03/30 04:00:22;;;;;;;12.52;4.32;;;9.20;99.90;;;;;;4979309;28;20084;-73
2021/03/30 04:02:54;;;;;;;6.35;3.20;;;9.10;99.90;;;;;;4976371;28;20038;-73
2021/03/30 04:05:22;;;;;;;8.43;3.63;;;9.10;99.90;;;;;;4986966;28;20030;-73
2021/03/30 04:08:07;;;;;;;8.85;3.42;;;9.10;99.90;;;;;;4986870;28;20034;-74
2021/03/30 04:10:35;;;;;;;6.82;3.40;;;9.00;99.90;;;;;;4991102;28;20041;-73
2021/03/30 04:13:01;;;;;;;5.72;3.42;;;9.00;99.90;;;;;;4990086;28;20173;-74
2021/03/30 04:15:29;;;;;;;7.65;3.17;;;9.00;99.90;;;;;;4989783;28;20114;-74
2021/03/30 04:17:55;;;;;;;8.48;3.60;;;9.00;99.90;;;;;;4990954;28;20042;-73
2021/03/30 04:20:21;;;;;;;6.03;3.47;;;9.00;99.90;;;;;;4992610;28;20121;-74
2021/03/30 04:22:58;;;;;;;8.32;3.58;;;8.90;99.90;;;;;;4990755;28;20038;-73
2021/03/30 04:25:24;;;;;;;7.85;3.72;;;8.90;99.90;;;;;;4989408;28;20033;-73
2021/03/30 04:27:54;;;;;;;4.60;3.40;;;8.90;99.90;;;;;;4990366;28;20061;-74
2021/03/30 04:30:21;;;;;;;10.00;3.83;;;8.90;99.90;;;;;;4981217;28;20393;-74
2021/03/30 04:32:46;;;;;;;7.63;3.70;;;8.90;99.90;;;;;;4989449;28;20089;-74
2021/03/30 04:35:12;;;;;;;6.90;3.55;;;8.90;99.90;;;;;;4982365;28;20030;-74
2021/03/30 04:37:42;;;;;;;7.97;3.70;;;8.80;99.90;;;;;;4986003;28;20076;-75
2021/03/30 04:40:09;;;;;;;9.40;3.80;;;8.80;99.90;;;;;;4991157;28;20525;-74
2021/03/30 04:42:35;;;;;;;8.48;3.55;;;8.80;99.90;;;;;;4983702;28;20117;-74
2021/03/30 04:45:01;;;;;;;8.07;3.72;;;8.80;99.90;;;;;;4990185;28;20629;-74
2021/03/30 04:47:26;;;;;;;10.13;3.63;;;8.80;99.90;;;;;;4987651;28;20038;-74
2021/03/30 04:49:52;;;;;;;10.93;3.60;;;8.80;99.90;;;;;;4989497;28;20033;-74
2021/03/30 04:52:18;;;;;;;8.27;3.35;;;8.80;99.90;;;;;;4987250;28;20409;-74
2021/03/30 04:54:43;;;;;;;7.35;3.38;;;8.80;99.90;;;;;;4983679;28;20042;-74
2021/03/30 04:57:09;;;;;;;5.00;2.97;;;8.80;99.90;;;;;;4981105;28;20023;-74
2021/03/30 04:59:34;;;;;;;11.95;3.65;;;8.70;99.90;;;;;;4989109;28;20026;-74
2021/03/30 05:02:00;;;;;;;5.47;3.30;;;8.70;99.90;;;;;;4979029;28;20019;-74
2021/03/30 05:04:25;;;;;;;7.18;3.42;;;8.70;99.90;;;;;;4987402;28;20049;-74
2021/03/30 05:06:51;;;;;;;6.18;3.70;;;8.70;99.90;;;;;;4989197;28;20061;-73
2021/03/30 05:09:16;;;;;;;8.20;3.90;;;8.70;99.90;;;;;;4985117;28;20026;-74
2021/03/30 05:11:42;;;;;;;5.13;3.33;;;8.70;99.90;;;;;;4986695;28;20031;-74
2021/03/30 05:14:07;;;;;;;6.35;3.53;;;8.70;99.90;;;;;;4985443;28;20493;-73
2021/03/30 05:16:33;;;;;;;6.15;3.33;;;8.70;99.90;;;;;;4984133;28;20018;-73
2021/03/30 05:18:59;;;;;;;8.95;3.72;;;8.70;99.90;;;;;;4987348;28;20121;-74
2021/03/30 05:21:24;;;;;;;6.25;3.42;;;8.80;99.90;;;;;;4981396;28;20069;-74
2021/03/30 05:23:50;;;;;;;7.03;3.75;;;8.80;99.90;;;;;;4988852;28;20034;-74
2021/03/30 05:26:15;;;;;;;8.60;3.47;;;8.70;99.90;;;;;;4985743;28;20025;-73
2021/03/30 05:28:41;;;;;;;5.85;3.47;;;8.80;99.90;;;;;;4987853;28;20058;-72
2021/03/30 05:31:07;;;;;;;6.00;3.63;;;8.80;99.90;;;;;;4989628;28;20534;-73
2021/03/30 05:33:38;;;;;;;8.05;4.65;;;8.80;99.90;;;;;;4977912;28;20070;-73
2021/03/30 05:36:04;;;;;;;7.00;3.78;;;8.80;99.90;;;;;;4983266;28;20441;-73
2021/03/30 05:38:30;;;;;;;10.02;4.25;;;8.90;99.90;;;;;;4988695;28;20026;-73
2021/03/30 05:40:56;;;;;;;8.73;3.80;;;8.90;99.90;;;;;;4982086;28;20493;-73
2021/03/30 05:43:22;;;;;;;9.25;3.83;;;8.90;99.90;;;;;;4983926;28;20393;-73
2021/03/30 05:45:47;;;;;;;11.57;4.82;;;9.00;99.90;;;;;;4981556;28;20031;-74
2021/03/30 05:48:15;;;;;;;8.77;3.88;;;9.00;99.90;;;;;;4982308;28;20023;-74
2021/03/30 05:50:41;;;;;;;12.02;4.55;;;9.10;99.90;;;;;;4979415;28;20049;-74
2021/03/30 05:53:11;;;;;;;10.48;4.43;;;9.10;99.90;;;;;;4985646;28;20023;-74
2021/03/30 05:55:43;;;;;;;8.85;4.15;;;9.20;99.90;;;;;;4985962;28;20093;-75
2021/03/30 05:58:09;;;;;;;11.82;4.10;;;9.20;99.90;;;;;;4984348;28;20032;-75
2021/03/30 06:00:44;;;;;;;10.40;4.25;;;9.30;99.90;;;;;;4982353;28;20048;-76
2021/03/30 06:03:13;;;;;;;8.10;3.78;;;9.30;99.90;;;;;;4988578;28;20421;-76
2021/03/30 06:05:39;;;;;;;11.52;5.40;;;9.40;99.90;;;;;;4986659;28;20030;-77
2021/03/30 06:08:06;;;;;;;8.55;4.57;;;9.50;99.90;;;;;;4986476;28;20542;-77
2021/03/30 06:10:36;;;;;;;13.90;4.88;;;9.70;99.90;;;;;;4988733;28;20084;-76
2021/03/30 06:13:09;;;;;;;10.35;5.55;;;9.90;98.30;;;;;;4985293;28;20034;-76
2021/03/30 06:15:35;;;;;;;13.75;5.03;;;10.20;95.80;;;;;;4979040;28;20042;-77
2021/03/30 06:18:16;;;;;;;14.50;5.07;;;10.40;95.20;;;;;;4989550;28;20026;-75
2021/03/30 06:20:41;;;;;;;10.47;4.80;;;10.60;94.10;;;;;;4985449;28;20030;-76
2021/03/30 06:23:08;;;;;;;9.80;5.38;;;10.80;92.50;;;;;;4988857;28;20033;-77
2021/03/30 06:26:00;;;;;;;10.13;5.35;;;10.90;92.00;;;;;;4988187;28;20429;-76
2021/03/30 06:28:28;;;;;;;16.55;5.00;;;11.00;90.80;;;;;;4982212;28;20073;-76
2021/03/30 06:31:11;;;;;;;12.82;6.05;;;11.10;90.50;;;;;;4982890;28;20034;-77
2021/03/30 06:33:59;;;;;;;11.05;5.05;;;11.20;88.30;;;;;;4983401;28;20058;-77
2021/03/30 06:36:28;;;;;;;12.88;5.22;;;11.30;87.60;;;;;;4983713;28;20478;-76
2021/03/30 06:38:57;;;;;;;20.55;5.05;;;11.40;85.80;;;;;;4973627;28;20087;-76
2021/03/30 06:46:51;;;;;;;15.10;5.22;;;11.60;82.00;;;;;;4988669;28;20118;-77
2021/03/30 06:49:18;;;;;;;33.07;5.37;;;11.70;80.60;;;;;;4989587;28;20023;-76
2021/03/30 06:51:45;;;;;;;13.40;5.57;;;11.70;80.50;;;;;;4985586;28;20282;-77
2021/03/30 06:54:11;;;;;;;11.45;5.38;;;11.80;80.10;;;;;;4988562;28;20027;-76
2021/03/30 06:56:56;;;;;;;9.68;5.20;;;11.80;79.70;;;;;;4990064;28;20117;-77
2021/03/30 06:59:23;;;;;;;12.45;5.25;;;11.90;79.50;;;;;;4990254;28;20037;-77
2021/03/30 07:01:52;;;;;;;10.75;5.88;;;11.90;78.50;;;;;;4986583;28;20056;-77
2021/03/30 07:04:18;;;;;;;19.83;5.43;;;12.00;78.80;;;;;;4990499;28;20053;-77
2021/03/30 07:06:50;;;;;;;9.80;4.47;;;12.10;78.60;;;;;;4989830;28;20049;-77
2021/03/30 07:09:16;;;;;;;8.65;4.68;;;12.10;77.60;;;;;;4989374;28;20026;-76
2021/03/30 07:11:42;;;;;;;12.93;5.25;;;12.20;77.30;;;;;;4986146;28;20141;-77
2021/03/30 07:14:07;;;;;;;10.55;5.47;;;12.30;76.20;;;;;;4991017;28;20126;-77
2021/03/30 07:16:40;;;;;;;12.90;5.97;;;12.30;75.70;;;;;;4986903;28;20451;-77
2021/03/30 07:19:08;;;;;;;16.52;5.90;;;12.40;75.50;;;;;;4989186;28;20089;-77
2021/03/30 07:21:51;;;;;;;11.85;5.28;;;12.50;75.70;;;;;;4986282;28;20050;-77
2021/03/30 07:24:23;;;;;;;12.43;5.53;;;12.50;75.40;;;;;;4988171;28;20081;-77
2021/03/30 07:26:55;;;;;;;11.98;5.22;;;12.60;74.30;;;;;;4988626;28;20053;-77
2021/03/30 07:29:44;;;;;;;9.68;5.40;;;12.60;73.70;;;;;;4989916;28;20085;-83
2021/03/30 07:32:34;;;;;;;13.02;5.95;;;12.70;73.20;;;;;;4981288;28;20031;-77
2021/03/30 07:35:24;;;;;;;15.85;5.97;;;12.80;72.10;;;;;;4987420;28;20038;-76
2021/03/30 07:37:58;;;;;;;13.18;6.45;;;12.90;70.90;;;;;;4987337;28;20065;-78
2021/03/30 07:40:24;;;;;;;11.00;5.63;;;13.10;70.40;;;;;;4986524;28;20036;-77
2021/03/30 07:42:50;;;;;;;15.40;6.70;;;13.10;69.90;;;;;;4988574;28;20424;-76
2021/03/30 07:45:20;;;;;;;14.52;6.18;;;13.20;69.50;;;;;;4989486;28;20038;-77
2021/03/30 07:47:47;;;;;;;13.90;6.07;;;13.30;69.40;;;;;;4981613;28;20030;-78
2021/03/30 07:50:15;;;;;;;16.83;7.10;;;13.30;70.40;;;;;;4977649;28;20026;-76
2021/03/30 07:52:47;;;;;;;12.48;6.35;;;13.40;69.30;;;;;;4986384;28;20046;-76
2021/03/30 07:55:27;;;;;;;22.85;6.25;;;13.50;68.90;;;;;;4988723;28;20068;-80
2021/03/30 07:57:57;;;;;;;12.77;6.15;;;13.60;69.20;;;;;;4987174;28;20034;-75
2021/03/30 08:00:32;;;;;;;15.00;6.22;;;13.60;69.70;;;;;;4988532;28;20077;-76
2021/03/30 08:03:04;;;;;;;18.17;7.05;;;13.70;69.70;;;;;;4983533;28;20027;-77
2021/03/30 08:05:32;;;;;;;16.02;6.25;;;13.80;70.10;;;;;;4992262;28;20112;-77
2021/03/30 08:07:59;;;;;;;13.00;6.78;;;13.90;70.70;;;;;;4985254;28;20066;-76
2021/03/30 08:10:29;;;;;;;13.00;7.00;;;13.90;70.20;;;;;;4984942;28;20433;-81
2021/03/30 08:13:22;;;;;;;14.18;6.50;;;14.00;69.50;;;;;;4988273;28;20034;-76
2021/03/30 08:16:09;;;;;;;13.43;6.28;;;14.10;69.70;;;;;;4987488;28;20036;-79
2021/03/30 08:18:37;;;;;;;14.63;6.88;;;14.20;69.80;;;;;;4974076;28;20442;-77
2021/03/30 08:21:08;;;;;;;12.02;6.78;;;14.20;70.10;;;;;;4985073;28;20095;-79
2021/03/30 08:23:52;;;;;;;14.38;6.80;;;14.30;70.40;;;;;;4989219;28;20053;-78
2021/03/30 08:26:30;;;;;;;15.05;6.57;;;14.40;70.90;;;;;;4972826;28;20405;-76
2021/03/30 08:29:12;;;;;;;15.80;6.80;;;14.60;70.90;;;;;;4987036;28;20042;-78
2021/03/30 08:31:41;;;;;;;13.77;6.85;;;14.60;70.50;;;;;;4990293;28;20076;-77
2021/03/30 08:34:15;;;;;;;16.35;6.78;;;14.70;70.60;;;;;;4986032;28;20051;-76
2021/03/30 08:36:44;;;;;;;17.98;7.47;;;14.80;70.20;;;;;;4973957;28;20046;-77
2021/03/30 08:39:23;;;;;;;16.33;6.78;;;14.90;70.60;;;;;;4982449;28;20122;-78
2021/03/30 08:42:00;;;;;;;12.07;7.25;;;14.90;69.30;;;;;;4985542;28;20026;-77
2021/03/30 08:44:59;;;;;;;21.60;6.70;;;15.10;68.50;;;;;;4986330;28;20042;-80
2021/03/30 08:47:37;;;;;;;10.02;6.03;;;15.10;68.20;;;;;;4989946;28;20041;-78
2021/03/30 08:50:14;;;;;;;13.15;5.90;;;15.20;67.80;;;;;;4989400;28;20026;-77
2021/03/30 08:52:40;;;;;;;13.10;5.85;;;15.30;68.10;;;;;;4988087;28;20061;-78
2021/03/30 08:55:09;;;;;;;10.13;5.70;;;15.40;68.10;;;;;;4985182;28;20101;-77
2021/03/30 08:57:37;;;;;;;13.43;5.68;;;15.50;67.30;;;;;;4986842;28;20031;-76
2021/03/30 09:00:11;;;;;;;17.05;6.43;;;15.50;69.40;;;;;;4986155;28;20035;-78
2021/03/30 09:02:37;;;;;;;15.18;6.82;;;15.60;68.30;;;;;;4983655;28;20031;-73
2021/03/30 09:05:17;;;;;;;10.95;5.50;;;15.70;67.10;;;;;;4978160;28;20033;-78
2021/03/30 09:07:48;;;;;;;13.35;6.68;;;15.70;67.70;;;;;;4987321;28;20049;-77
2021/03/30 09:10:15;;;;;;;14.75;7.18;;;15.80;70.30;;;;;;4992073;28;20034;-78
2021/03/30 09:12:41;;;;;;;15.48;6.28;;;15.80;67.60;;;;;;4982630;28;20037;-82
2021/03/30 09:15:09;;;;;;;14.43;6.68;;;15.90;69.00;;;;;;4974140;28;20026;-77
2021/03/30 09:17:51;;;;;;;17.45;6.05;;;16.00;68.50;;;;;;4987301;28;20058;-77
2021/03/30 09:20:18;;;;;;;14.40;6.68;;;16.10;67.70;;;;;;4987153;28;20064;-81
2021/03/30 09:22:46;;;;;;;11.60;6.20;;;16.10;67.40;;;;;;4988330;28;20061;-76
2021/03/30 09:25:28;;;;;;;18.58;6.30;;;16.20;68.20;;;;;;4982039;28;20093;-76
2021/03/30 09:27:54;;;;;;;15.10;6.78;;;16.20;68.40;;;;;;4987960;28;20433;-77
2021/03/30 09:30:22;;;;;;;13.80;7.43;;;16.30;68.20;;;;;;4985445;28;20049;-77
2021/03/30 09:32:50;;;;;;;14.93;5.55;;;16.30;67.10;;;;;;4986645;28;20050;-78
2021/03/30 09:35:22;;;;;;;15.18;6.70;;;16.40;65.90;;;;;;4983613;28;20033;-78
2021/03/30 09:37:55;;;;;;;;;;;16.50;65.40;;;;;;4978548;28;20521;-77
2021/03/30 09:40:28;;;;;;;15.98;6.40;;;16.60;68.20;;;;;;4982757;28;19918;-76
2021/03/30 09:42:54;;;;;;;13.30;6.20;;;16.70;67.70;;;;;;4984132;28;20496;-77
2021/03/30 09:45:32;;;;;;;15.73;6.22;;;16.70;68.60;;;;;;4982653;28;20420;-75
2021/03/30 09:48:00;;;;;;;10.95;6.18;;;16.70;68.70;;;;;;4987885;28;20031;-76
2021/03/30 09:50:28;;;;;;;11.38;5.97;;;16.80;67.90;;;;;;4985061;28;20026;-76
2021/03/30 09:53:01;;;;;;;12.10;5.95;;;16.90;67.90;;;;;;4985490;28;20498;-77
2021/03/30 09:55:28;;;;;;;10.73;5.75;;;17.00;68.60;;;;;;4985562;28;20076;-76
2021/03/30 09:58:04;;;;;;;14.27;6.50;;;17.00;66.40;;;;;;4985878;28;20054;-77
2021/03/30 10:00:32;;;;;;;13.65;6.68;;;17.10;66.70;;;;;;4984327;28;20130;-77
2021/03/30 10:02:59;;;;;;;10.63;5.80;;;17.10;66.60;;;;;;4985273;28;20098;-76
2021/03/30 10:05:31;;;;;;;10.95;5.57;;;17.20;66.90;;;;;;4985776;28;20109;-77
2021/03/30 10:07:57;;;;;;;13.75;6.13;;;17.30;67.10;;;;;;4986799;28;20030;-77
2021/03/30 10:10:23;;;;;;;15.68;6.43;;;17.50;68.10;;;;;;4985551;28;20461;-77
2021/03/30 10:12:53;;;;;;;11.25;5.82;;;17.60;66.40;;;;;;4987837;28;20493;-77
2021/03/30 10:15:30;;;;;;;12.55;5.85;;;17.80;65.30;;;;;;4987647;28;20056;-77
2021/03/30 10:17:56;;;;;;;13.65;6.60;;;17.90;65.00;;;;;;4985623;28;20031;-78
2021/03/30 10:20:22;;;;;;;15.07;6.35;;;18.00;64.50;;;;;;4986730;28;20022;-77
2021/03/30 10:22:48;;;;;;;15.20;6.65;;;18.10;64.90;;;;;;4985009;28;20034;-77
2021/03/30 10:25:22;;;;;;;17.20;6.20;;;18.30;63.30;;;;;;4986637;28;20030;-76
2021/03/30 10:27:59;;;;;;;11.60;6.25;;;18.40;62.90;;;;;;4983594;28;20026;-77
2021/03/30 10:30:45;;;;;;;11.85;6.70;;;18.50;61.70;;;;;;4987751;28;20093;-77
2021/03/30 10:33:13;;;;;;;13.07;6.13;;;18.60;61.50;;;;;;4983288;28;20046;-78
2021/03/30 10:35:39;;;;;;;13.52;7.13;;;18.70;62.00;;;;;;4981923;28;20062;-75
2021/03/30 10:38:05;;;;;;;17.60;6.75;;;18.90;60.60;;;;;;4985210;28;20456;-77
2021/03/30 10:40:33;;;;;;;11.93;6.40;;;18.90;60.10;;;;;;4983084;28;20035;-76
2021/03/30 10:43:20;;;;;;;14.13;6.68;;;19.00;60.60;;;;;;4984877;28;20038;-73
2021/03/30 10:45:46;;;;;;;13.65;6.15;;;19.20;59.90;;;;;;4985150;28;20026;-77
2021/03/30 10:48:12;;;;;;;12.65;6.45;;;19.30;60.00;;;;;;4986248;28;20065;-74
2021/03/30 10:50:38;;;;;;;15.55;6.53;;;19.40;59.20;;;;;;4985337;28;20095;-76
2021/03/30 10:53:03;;;;;;;13.88;6.88;;;19.50;59.30;;;;;;4977079;28;20037;-74
2021/03/30 10:55:32;;;;;;;11.73;6.13;;;19.60;59.40;;;;;;4980448;28;20031;-75
2021/03/30 10:57:58;;;;;;;15.45;6.53;;;19.70;60.00;;;;;;4984003;28;20766;-73
2021/03/30 11:00:24;;;;;;;11.20;6.00;;;19.80;57.70;;;;;;4984028;28;20027;-73
2021/03/30 11:02:49;;;;;;;13.20;5.70;;;20.00;58.80;;;;;;4981238;28;20401;-73
2021/03/30 11:05:16;;;;;;;10.90;5.40;;;20.20;58.20;;;;;;4982127;28;20030;-72
2021/03/30 11:07:47;;;;;;;18.52;5.15;;;20.50;59.30;;;;;;4962203;28;20096;-72
2021/03/30 11:10:33;;;;;;;;;;;20.70;57.70;;;;;;4977139;28;20073;-72
2021/03/30 11:12:59;;;;;;;14.88;5.20;;;20.80;55.80;;;;;;4982258;28;19958;-73
2021/03/30 11:15:24;;;;;;;12.27;5.45;;;20.80;56.20;;;;;;4984688;28;20085;-78
2021/03/30 11:17:49;;;;;;;8.68;5.18;;;21.00;55.70;;;;;;4985083;28;20117;-77
2021/03/30 11:20:15;;;;;;;12.38;5.85;;;21.10;54.80;;;;;;4982821;28;20489;-77
2021/03/30 11:22:46;;;;;;;10.43;5.85;;;21.30;56.10;;;;;;4986419;28;20454;-77
2021/03/30 11:25:12;;;;;;;11.88;5.68;;;21.60;54.00;;;;;;4985968;28;20069;-78
2021/03/30 11:27:40;;;;;;;10.77;5.28;;;21.70;53.90;;;;;;4983636;28;20031;-77
2021/03/30 11:30:21;;;;;;;12.82;5.53;;;21.80;53.40;;;;;;4989697;28;20030;-74
2021/03/30 11:35:19;;;;;;;9.90;5.32;;;22.20;52.80;;;;;;4993783;28;20022;-79
2021/03/30 11:37:50;;;;;;;12.82;5.32;;;22.40;52.20;;;;;;4992569;28;20092;-76
2021/03/30 11:40:16;;;;;;;10.02;5.28;;;22.50;54.30;;;;;;4987293;28;20031;-79
2021/03/30 11:42:42;;;;;;;12.00;5.97;;;23.00;51.30;;;;;;4986068;28;20026;-76
2021/03/30 11:45:08;;;;;;;11.65;6.03;;;23.40;50.70;;;;;;4991144;28;20026;-79
2021/03/30 11:47:34;;;;;;;15.43;7.03;;;23.70;49.40;;;;;;4988670;28;20473;-79
2021/03/30 11:49:59;;;;;;;12.32;6.35;;;24.00;47.50;;;;;;4989477;28;20049;-77
2021/03/30 11:52:25;;;;;;;12.63;6.30;;;24.20;46.80;;;;;;4987679;28;20041;-76
2021/03/30 11:54:50;;;;;;;10.45;6.03;;;24.50;46.20;;;;;;4986603;28;20030;-74
2021/03/30 11:57:18;;;;;;;13.05;7.03;;;24.70;45.50;;;;;;4986465;28;20054;-79
2021/03/30 11:59:44;;;;;;;13.65;6.65;;;25.00;44.00;;;;;;4991467;28;20026;-76
2021/03/30 12:02:09;;;;;;;16.13;7.05;;;25.20;44.30;;;;;;4992567;28;20117;-78
2021/03/30 12:04:35;;;;;;;11.32;5.78;;;25.60;43.10;;;;;;4976113;28;20053;-78
2021/03/30 12:07:00;;;;;;;10.70;6.15;;;26.00;42.80;;;;;;4985798;28;20381;-79
2021/03/30 12:09:25;;;;;;;12.85;6.82;;;26.30;42.20;;;;;;4985501;28;20396;-79
2021/03/30 12:11:51;;;;;;;10.63;6.03;;;26.60;41.90;;;;;;4989889;28;20031;-73
2021/03/30 12:14:17;;;;;;;12.10;5.50;;;27.10;40.50;;;;;;4989762;28;20030;-75
2021/03/30 12:16:49;;;;;;;12.70;5.50;;;27.30;40.20;;;;;;4990145;28;20030;-76
2021/03/30 12:19:15;;;;;;;11.30;5.72;;;27.60;41.90;;;;;;4988521;28;20504;-76
2021/03/30 12:21:42;;;;;;;9.75;5.63;;;28.00;39.40;;;;;;4990033;28;20034;-76
2021/03/30 12:24:08;;;;;;;8.95;5.43;;;28.30;39.30;;;;;;4990900;28;20057;-76
2021/03/30 12:26:34;;;;;;;9.35;6.15;;;28.60;37.60;;;;;;4988036;28;20027;-76
2021/03/30 12:29:02;;;;;;;8.70;5.05;;;28.70;37.60;;;;;;4968377;28;20026;-77
2021/03/30 12:31:28;;;;;;;9.10;5.80;;;28.90;36.30;;;;;;4987127;28;20026;-77
2021/03/30 12:33:53;;;;;;;8.02;5.40;;;28.80;36.90;;;;;;4989495;28;20108;-76
2021/03/30 12:36:22;;;;;;;11.60;5.35;;;29.10;37.30;;;;;;4987609;28;20393;-76
2021/03/30 12:38:48;;;;;;;10.85;5.90;;;29.30;36.50;;;;;;4982192;28;20029;-76
2021/03/30 12:41:13;;;;;;;10.35;6.30;;;29.30;36.10;;;;;;4993434;28;20110;-76
2021/03/30 12:43:39;;;;;;;14.45;5.97;;;29.40;36.40;;;;;;4975532;28;20054;-76
2021/03/30 12:46:04;;;;;;;9.38;5.53;;;29.70;36.70;;;;;;4984678;28;20117;-76
2021/03/30 12:48:30;;;;;;;10.80;5.63;;;29.90;35.00;;;;;;4992792;28;20034;-77
2021/03/30 12:50:56;;;;;;;13.23;6.72;;;29.90;35.00;;;;;;4981698;28;20486;-76
2021/03/30 12:53:21;;;;;;;15.75;6.60;;;30.10;34.40;;;;;;4968143;28;20049;-76
2021/03/30 12:55:47;;;;;;;13.43;6.32;;;30.30;33.90;;;;;;4984247;28;20034;-77
2021/03/30 12:58:12;;;;;;;8.68;5.75;;;30.60;34.80;;;;;;4987185;28;20018;-78
2021/03/30 13:00:38;;;;;;;10.30;6.10;;;30.80;33.50;;;;;;4989275;28;20069;-78
2021/03/30 13:03:04;;;;;;;11.27;6.13;;;30.80;33.10;;;;;;4993673;28;20339;-78
2021/03/30 13:05:29;;;;;;;11.55;6.57;;;31.00;34.50;;;;;;4992115;28;20045;-78